createdAt,value
2019-02-23T11:27:56.884Z,3008.00
2019-02-23T12:59:54.092Z,1996.00
2019-02-23T13:04:58.219Z,2440.00
2019-02-23T14:40:41.668Z,1204.00
2019-02-23T14:41:36.931Z,1132.00
2019-02-23T14:42:35.700Z,1320.00
2019-02-23T14:43:33.212Z,1020.00
2019-02-23T14:44:35.693Z,948.00
2019-02-23T14:45:35.844Z,964.00
2019-02-23T14:46:33.565Z,948.00
2019-02-23T14:47:37.168Z,872.00
2019-02-23T14:48:35.764Z,924.00
2019-02-23T14:49:35.680Z,1000.00
2019-02-23T14:50:35.702Z,952.00
2019-02-23T14:51:35.432Z,844.00
2019-02-23T14:53:35.210Z,972.00
2019-02-23T14:54:35.518Z,924.00
2019-02-23T14:55:35.738Z,776.00
2019-02-23T14:56:35.675Z,748.00
2019-02-23T14:57:32.285Z,828.00
2019-02-23T14:58:34.586Z,864.00
2019-02-23T14:59:36.276Z,908.00
2019-02-23T15:00:34.734Z,872.00
2019-02-23T15:01:34.956Z,820.00
2019-02-23T15:02:36.326Z,928.00
2019-02-23T15:03:34.260Z,836.00
2019-02-23T15:04:34.313Z,888.00
2019-02-23T15:05:34.270Z,664.00
2019-02-23T15:06:35.252Z,640.00
2019-02-23T15:07:33.933Z,608.00
2019-02-23T15:08:34.076Z,604.00
2019-02-23T15:09:34.286Z,620.00
2019-02-23T15:10:33.825Z,588.00
2019-02-23T15:11:33.863Z,580.00
2019-02-23T15:12:31.097Z,592.00
2019-02-23T15:13:35.252Z,624.00
2019-02-23T15:14:33.188Z,696.00
2019-02-23T15:15:33.593Z,644.00
2019-02-23T15:16:33.175Z,628.00
2019-02-23T15:17:33.150Z,596.00
2019-02-23T15:18:30.938Z,528.00
2019-02-23T15:19:57.695Z,532.00
2019-02-23T15:21:30.226Z,512.00
2019-02-23T15:24:04.769Z,492.00
2019-02-23T15:25:12.542Z,472.00
2019-02-23T15:26:05.376Z,444.00
2019-02-23T15:27:05.652Z,424.00
2019-02-23T15:28:03.420Z,400.00
2019-02-23T15:29:04.890Z,396.00
2019-02-23T16:16:34.018Z,84.00
2019-02-23T16:39:01.867Z,24.00
2019-02-23T18:07:58.654Z,0.00
2019-02-23T18:09:55.476Z,0.00
2019-02-23T18:10:51.996Z,0.00
2019-02-23T18:11:48.741Z,0.00
2019-02-23T18:13:47.840Z,0.00
2019-02-23T18:14:51.884Z,0.00
2019-02-23T18:15:50.438Z,0.00
2019-02-23T18:16:50.983Z,0.00
2019-02-23T18:17:51.011Z,0.00
2019-02-23T18:18:50.940Z,0.00
2019-02-23T18:19:51.999Z,0.00
2019-02-23T18:20:51.223Z,0.00
2019-02-23T18:21:49.994Z,0.00
2019-02-23T18:22:50.258Z,0.00
2019-02-23T18:23:49.566Z,0.00
2019-02-23T18:24:50.780Z,0.00
2019-02-23T18:25:56.013Z,0.00
2019-02-23T18:55:40.646Z,0.00
2019-02-23T19:00:46.524Z,0.00
2019-02-23T19:01:43.981Z,0.00
2019-02-23T19:02:46.609Z,0.00
2019-02-23T19:03:46.636Z,0.00
2019-02-23T19:04:45.611Z,0.00
2019-02-23T19:05:49.746Z,0.00
2019-02-23T19:06:46.566Z,0.00
2019-02-23T19:07:45.985Z,0.00
2019-02-23T19:08:43.941Z,0.00
2019-02-23T19:09:46.394Z,0.00
